Terminal Aerodrome Forecast
Issued by NWS

Home | Current Version | Previous Version | Text Only | Print | Product List | Glossary On
Versions: 1 2 3 4 5 6 7 8 9 10 11 12 13 14 15 16 17 18
000
FTUS43 KTOP 201100
TAFMHK
TAF
KMHK 201120Z 2012/2112 00000KT 3SM BR SKC
      TEMPO 2012/2013 1/2SM FG BKN003
     FM201400 04006KT P6SM SKC=

USA.gov is the U.S. government's official web portal to all federal, state and local government web resources and services.